KMDT/MDT METAR and TAF weather

Enter ICAO airport designator
Station Type Date Time Source
KMDT METAR 2021/03/01 21:56 UTC NOAA

KMDT 012156Z 32016G23KT 10SM BKN070 BKN085 07/M06 A2983 RMK AO2 PK WND 31029/2057 SLP104 T00721061


Station Type Date Time Source
KMDT Decoded METAR 2021/03/01 21:56 UTC NOAA

HARRISBURG INTERNATIONAL AIRPORT, PA, United States (KMDT) 40-12N 076-46W 95M
Mar 01, 2021 - 04:56 PM EST / 2021.03.01 2156 UTC
Wind: from the NW (320 degrees) at 18 MPH (16 KT) gusting to 26 MPH (23 KT):0
Visibility: 10 mile(s):0
Sky conditions: mostly cloudy
Temperature: 45.0 F (7.2 C)
Dew Point: 21.0 F (-6.1 C)
Relative Humidity: 38%
Pressure (altimeter): 29.83 in. Hg (1010 hPa)
ob: KMDT 012156Z 32016G23KT 10SM BKN070 BKN085 07/M06 A2983 RMK AO2 PK WND 31029/2057 SLP104 T00721061
cycle: 22

Station Type Date Time Source
KMDT TAF 2021/03/01 18:42 UTC NOAA

TAF KMDT 011741Z 0118/0218 31015G25KT P6SM BKN100
FM012100 31020G30KT P6SM SCT050
FM020900 31015G25KT P6SM FEW050
FM021500 30015G20KT P6SM SKC

Example: see airport list